createdAt,value
2016-11-29T09:58:08.409Z,69.64
2016-11-29T09:58:33.951Z,68.97
2016-11-29T09:58:59.491Z,69.17
2016-11-29T09:59:25.077Z,69.26
2016-11-29T09:59:50.570Z,69.07
2016-11-29T10:00:16.130Z,69.17
2016-11-29T10:00:41.773Z,69.35
2016-11-29T10:01:07.304Z,68.68
2016-11-29T10:01:32.843Z,68.68
2016-11-29T10:01:58.380Z,68.49
2016-11-29T10:02:23.909Z,68.52
2016-11-29T10:02:49.509Z,68.49
2016-11-29T10:03:15.090Z,68.62
2016-11-29T10:03:40.625Z,68.43
2016-11-29T10:04:06.152Z,68.52
2016-11-29T10:04:31.666Z,68.52
2016-11-29T10:04:57.319Z,68.72
2016-11-29T10:05:22.885Z,68.52
2016-11-29T10:05:48.434Z,67.95
2016-11-29T10:06:13.963Z,68.14
2016-11-29T10:06:39.643Z,68.24
2016-11-29T10:07:05.210Z,68.43
2016-11-29T10:07:30.728Z,68.14
2016-11-29T10:08:44.110Z,68.05
2016-11-29T10:09:09.621Z,67.76
2016-11-29T10:09:35.200Z,67.85
2016-11-29T10:10:00.714Z,67.47
2016-11-29T10:10:26.243Z,67.38
2016-11-29T10:10:51.790Z,67.47
2016-11-29T10:11:17.361Z,67.57
2016-11-29T10:11:42.899Z,67.66
2016-11-29T10:12:08.466Z,66.8
2016-11-29T10:12:33.969Z,66.89
2016-11-29T10:12:59.509Z,66.89
2016-11-29T10:13:25.115Z,66.89
2016-11-29T10:13:50.627Z,66.99
2016-11-29T10:14:16.169Z,66.71
2016-11-29T10:14:41.693Z,66.89
2016-11-29T10:15:07.695Z,67.18
2016-11-29T10:15:33.341Z,66.8
2016-11-29T10:15:58.939Z,66.93
2016-11-29T10:16:24.481Z,66.83
2016-11-29T10:16:50.024Z,66.64
2016-11-29T10:17:16.480Z,66.55
2016-11-29T10:17:42.018Z,66.06
2016-11-29T10:18:07.534Z,66.16
2016-11-29T10:18:33.054Z,66.35
2016-11-29T10:18:58.638Z,66.45
2016-11-29T10:19:24.177Z,66.55
2016-11-29T10:19:49.745Z,66.26
2016-11-29T10:20:15.261Z,66.32
2016-11-29T10:20:40.798Z,66.26
2016-11-29T10:21:06.350Z,66.35
2016-11-29T10:21:31.890Z,66.26
2016-11-29T10:21:57.487Z,65.97
2016-11-29T10:22:23.035Z,65.97
2016-11-29T10:22:48.574Z,65.97
2016-11-29T10:23:14.112Z,65.78
2016-11-29T10:23:39.661Z,65.78
2016-11-29T10:24:05.222Z,66.16
2016-11-29T10:24:30.777Z,65.97
2016-11-29T10:24:56.299Z,65.78
2016-11-29T10:25:21.821Z,65.88
2016-11-29T10:25:47.370Z,66.06
2016-11-29T10:26:12.898Z,65.78
2016-11-29T10:26:38.479Z,65.78
2016-11-29T10:27:04.092Z,65.78
2016-11-29T10:27:29.657Z,65.59
2016-11-29T10:27:55.170Z,65.59
2016-11-29T10:28:48.183Z,65.2
2016-11-29T10:29:13.723Z,65.01
2016-11-29T10:29:39.391Z,65.39
2016-11-29T10:30:04.932Z,64.92
2016-11-29T10:30:30.434Z,64.92
2016-11-29T10:30:55.972Z,65.23
2016-11-29T10:31:21.473Z,64.95
2016-11-29T10:31:47.020Z,65.49
2016-11-29T10:32:12.545Z,64.85
2016-11-29T10:32:38.079Z,64.85
2016-11-29T10:33:03.645Z,65.05
2016-11-29T10:33:29.164Z,65.14
2016-11-29T10:33:54.687Z,64.85
2016-11-29T10:34:20.274Z,64.66
2016-11-29T10:34:45.788Z,64.76
2016-11-29T10:35:11.323Z,64.76
2016-11-29T10:35:36.943Z,64.56
2016-11-29T10:36:02.460Z,64.37
2016-11-29T10:36:27.995Z,64.47
2016-11-29T10:36:53.519Z,64.66
2016-11-29T10:37:19.064Z,63.7
2016-11-29T10:37:44.585Z,63.99
2016-11-29T10:38:10.116Z,63.89
2016-11-29T10:38:35.670Z,64.09
2016-11-29T10:39:01.199Z,63.7
2016-11-29T10:39:26.735Z,63.89
2016-11-29T10:39:52.255Z,63.99
2016-11-29T10:40:17.790Z,63.7
2016-11-29T10:40:43.327Z,63.99
2016-11-29T10:41:08.959Z,63.99
2016-11-29T10:41:34.499Z,63.79
2016-11-29T10:42:00.038Z,63.32
2016-11-29T10:42:25.591Z,63.45
2016-11-29T10:42:51.128Z,63.7
2016-11-29T10:43:16.656Z,63.64
2016-11-29T10:43:42.186Z,63.45
2016-11-29T10:44:07.795Z,63.35
2016-11-29T10:44:33.346Z,63.45
2016-11-29T10:44:58.866Z,63.45
2016-11-29T10:45:24.409Z,63.06
2016-11-29T10:45:49.947Z,63.35
2016-11-29T10:46:15.520Z,63.25
2016-11-29T10:46:41.096Z,62.96
2016-11-29T10:47:06.636Z,63.45
2016-11-29T10:47:32.155Z,63.54
2016-11-29T10:47:57.690Z,62.87
2016-11-29T10:48:23.243Z,62.68
2016-11-29T10:48:48.856Z,62.87
2016-11-29T10:49:14.382Z,62.96
2016-11-29T10:49:39.927Z,63.06
2016-11-29T10:50:05.466Z,62.87
2016-11-29T10:50:31.010Z,62.68
2016-11-29T10:50:56.626Z,62.87
2016-11-29T10:51:22.245Z,62.77
2016-11-29T10:51:47.787Z,62.87
2016-11-29T10:52:13.501Z,62.87
2016-11-29T10:52:39.037Z,62.77
2016-11-29T10:53:04.574Z,62.96
2016-11-29T10:53:30.259Z,63.06
2016-11-29T10:53:55.842Z,62.96
2016-11-29T10:54:21.368Z,62.77
2016-11-29T10:54:46.947Z,63.06
2016-11-29T10:55:12.496Z,62.87
2016-11-29T10:55:38.010Z,62.96
2016-11-29T10:56:03.607Z,62.77
2016-11-29T10:56:29.154Z,62.39
2016-11-29T10:56:54.703Z,62.39
2016-11-29T10:57:20.207Z,62.19
2016-11-29T10:57:45.736Z,62.1
2016-11-29T10:58:11.298Z,62.29
2016-11-29T10:58:36.840Z,62.29
2016-11-29T10:59:02.365Z,62.23
2016-11-29T10:59:27.891Z,62.23
2016-11-29T10:59:53.456Z,62.1
2016-11-29T11:00:19.018Z,62.29
2016-11-29T11:00:44.535Z,62.42
2016-11-29T11:01:10.059Z,62.23
2016-11-29T11:01:35.670Z,62.13
2016-11-29T11:02:01.242Z,62.42
2016-11-29T11:02:26.760Z,61.94
2016-11-29T11:02:52.317Z,62.23
2016-11-29T11:03:17.877Z,62.04
2016-11-29T11:03:43.389Z,61.84
2016-11-29T11:04:09.016Z,61.84
2016-11-29T11:04:34.549Z,61.55
2016-11-29T11:05:00.075Z,61.55
2016-11-29T11:05:25.602Z,61.75
2016-11-29T11:05:51.152Z,61.65
2016-11-29T11:06:16.731Z,61.46
2016-11-29T11:06:42.279Z,61.36
2016-11-29T11:07:07.800Z,61.65
2016-11-29T11:07:33.359Z,61.55
2016-11-29T11:07:58.864Z,61.55
2016-11-29T11:08:24.385Z,61.27
2016-11-29T11:08:49.906Z,61.65
2016-11-29T11:09:15.550Z,61.46
2016-11-29T11:09:41.078Z,61.55
2016-11-29T11:10:06.632Z,61.36
2016-11-29T11:10:32.152Z,60.98
2016-11-29T11:10:57.697Z,60.98
2016-11-29T11:11:23.225Z,61.08
2016-11-29T11:11:48.779Z,60.88
2016-11-29T11:12:14.320Z,60.88
2016-11-29T11:12:39.834Z,61.17
2016-11-29T11:13:05.387Z,60.88
2016-11-29T11:13:30.920Z,60.98
2016-11-29T11:13:56.472Z,60.88
2016-11-29T11:14:22.020Z,61.08
2016-11-29T11:14:47.566Z,60.88
2016-11-29T11:15:13.189Z,61.08
2016-11-29T11:15:38.722Z,61.17
2016-11-29T11:16:04.269Z,60.69
2016-11-29T11:16:29.807Z,61.27
2016-11-29T11:16:55.370Z,61.08
2016-11-29T11:17:20.920Z,60.88
2016-11-29T11:17:46.456Z,60.88
2016-11-29T11:18:11.979Z,61.36
2016-11-29T11:18:37.490Z,61.27
2016-11-29T11:19:03.024Z,61.27
2016-11-29T11:19:28.575Z,61.17
2016-11-29T11:19:54.118Z,61.17
2016-11-29T11:20:19.682Z,61.17
2016-11-29T11:20:45.214Z,61.08
2016-11-29T11:21:10.729Z,61.08
2016-11-29T11:21:36.300Z,61.17
2016-11-29T11:22:01.818Z,61.08
2016-11-29T11:22:27.393Z,61.08
2016-11-29T11:22:52.987Z,61.27
2016-11-29T11:23:18.525Z,61.17
2016-11-29T11:23:44.047Z,61.17
2016-11-29T11:24:09.586Z,60.88
2016-11-29T11:24:35.123Z,60.88
2016-11-29T11:25:00.665Z,61.08
2016-11-29T11:25:26.206Z,60.88
2016-11-29T11:25:51.779Z,61.08
2016-11-29T11:26:17.381Z,61.08
2016-11-29T11:26:42.907Z,60.98
2016-11-29T11:27:08.512Z,61.08
2016-11-29T11:27:34.061Z,60.88
2016-11-29T11:27:59.593Z,61.08
2016-11-29T11:28:25.157Z,61.55
2016-11-29T11:28:50.684Z,61.55
2016-11-29T11:29:16.322Z,61.36
2016-11-29T11:29:41.960Z,61.55
2016-11-29T11:30:07.492Z,61.27
2016-11-29T11:30:33.013Z,61.94
2016-11-29T11:30:58.574Z,61.84
2016-11-29T11:31:24.099Z,61.65
2016-11-29T11:31:49.732Z,61.65
2016-11-29T11:32:15.258Z,61.46
2016-11-29T11:32:40.795Z,61.84
2016-11-29T11:33:06.343Z,61.65
2016-11-29T11:33:31.914Z,61.55
2016-11-29T11:33:57.461Z,61.65
2016-11-29T11:34:22.993Z,61.46
2016-11-29T11:34:48.533Z,61.46
2016-11-29T11:35:14.137Z,61.36
2016-11-29T11:35:39.669Z,61.46
2016-11-29T11:36:05.202Z,61.27
2016-11-29T11:36:30.924Z,61.46
2016-11-29T11:36:56.463Z,61.36
2016-11-29T11:37:21.981Z,61.36
2016-11-29T11:37:47.503Z,61.46
2016-11-29T11:38:13.034Z,61.36
2016-11-29T11:38:38.557Z,61.46
2016-11-29T11:39:04.083Z,61.55
2016-11-29T11:39:29.631Z,61.46
2016-11-29T11:39:55.249Z,61.75
2016-11-29T11:40:20.799Z,61.46
2016-11-29T11:40:46.336Z,61.75
2016-11-29T11:41:11.976Z,61.55
2016-11-29T11:41:37.531Z,61.46
2016-11-29T11:42:03.055Z,61.52
2016-11-29T11:42:28.861Z,61.52
2016-11-29T11:42:54.379Z,61.65
2016-11-29T11:43:19.920Z,61.52
2016-11-29T11:43:45.560Z,61.62
2016-11-29T11:44:11.215Z,61.55
2016-11-29T11:44:36.725Z,62.19
2016-11-29T11:45:02.256Z,62.04
2016-11-29T11:45:27.809Z,62.39
2016-11-29T11:45:53.357Z,62.29
2016-11-29T11:46:18.927Z,62.19
2016-11-29T11:46:44.466Z,62.39
2016-11-29T11:47:09.997Z,62.39
2016-11-29T11:47:35.533Z,62.29
2016-11-29T11:48:01.035Z,61.72
2016-11-29T11:48:26.787Z,62.29
2016-11-29T11:48:52.307Z,61.91
2016-11-29T11:49:17.828Z,61.72
2016-11-29T11:49:43.451Z,62.29
2016-11-29T11:50:09.018Z,62.29
2016-11-29T11:50:34.547Z,62.48
2016-11-29T11:51:00.153Z,62.39
2016-11-29T11:51:25.718Z,62.29
2016-11-29T11:51:51.257Z,62.29
2016-11-29T11:52:16.791Z,62.29
2016-11-29T11:52:42.359Z,62.39
2016-11-29T11:53:07.924Z,62.1
2016-11-29T11:53:33.445Z,62.29
2016-11-29T11:53:58.978Z,62.58
2016-11-29T11:54:24.536Z,62.39
2016-11-29T11:54:50.074Z,62.39
2016-11-29T11:55:15.700Z,62.48
2016-11-29T11:55:41.224Z,62.48
2016-11-29T11:56:06.749Z,62.48
2016-11-29T11:56:32.295Z,62.68
2016-11-29T11:56:57.851Z,62.58
2016-11-29T11:57:23.346Z,62.29
2016-11-29T11:57:48.987Z,62.19
2016-11-29T11:58:14.526Z,62.19
2016-11-29T11:58:40.066Z,62.29
2016-11-29T11:59:05.594Z,62.01
2016-11-29T11:59:31.132Z,61.91
2016-11-29T11:59:56.714Z,62.29
2016-11-29T12:00:22.314Z,61.91
2016-11-29T12:00:47.823Z,62.1
2016-11-29T12:01:13.392Z,61.81
2016-11-29T12:01:38.888Z,62.01
2016-11-29T12:02:04.427Z,62.01
2016-11-29T12:02:29.984Z,62.19
2016-11-29T12:02:55.507Z,61.62
2016-11-29T12:03:21.088Z,62.19
2016-11-29T12:03:46.627Z,61.62
2016-11-29T12:04:12.183Z,61.81
2016-11-29T12:04:37.723Z,61.72
2016-11-29T12:05:03.261Z,61.72
2016-11-29T12:05:28.784Z,61.62
2016-11-29T12:05:54.329Z,61.62
2016-11-29T12:06:19.907Z,61.62
2016-11-29T12:06:45.478Z,61.91
2016-11-29T12:07:11.004Z,61.52
2016-11-29T12:07:36.512Z,61.43
2016-11-29T12:08:02.074Z,61.52
2016-11-29T12:08:27.592Z,61.62
2016-11-29T12:08:53.129Z,61.52
2016-11-29T12:09:18.634Z,61.62
2016-11-29T12:09:44.175Z,61.62
2016-11-29T12:10:09.721Z,61.81
2016-11-29T12:10:35.263Z,61.62
2016-11-29T12:11:00.795Z,61.91
2016-11-29T12:11:26.323Z,61.62
2016-11-29T12:11:51.864Z,61.81
2016-11-29T12:12:17.488Z,61.81
2016-11-29T12:12:43.026Z,62.1
2016-11-29T12:13:08.606Z,62.19
2016-11-29T12:13:34.209Z,61.81
2016-11-29T12:13:59.774Z,62.19
2016-11-29T12:14:25.327Z,61.81
2016-11-29T12:14:50.856Z,62.01
2016-11-29T12:15:16.465Z,61.91
2016-11-29T12:15:42.129Z,62.1
2016-11-29T12:16:07.665Z,62.01
2016-11-29T12:16:33.240Z,62.01
2016-11-29T12:16:58.785Z,62.19
2016-11-29T12:17:24.325Z,62.19
2016-11-29T12:17:49.856Z,61.91
2016-11-29T12:18:15.425Z,62.1
2016-11-29T12:18:40.967Z,62.19
2016-11-29T12:19:06.577Z,62.1
2016-11-29T12:19:32.090Z,62.19
2016-11-29T12:19:57.634Z,61.81
2016-11-29T12:20:23.189Z,61.62
2016-11-29T12:20:48.731Z,61.81
2016-11-29T12:21:14.342Z,61.72
2016-11-29T12:21:39.869Z,61.62
2016-11-29T12:22:05.425Z,61.62
2016-11-29T12:22:30.958Z,61.62
2016-11-29T12:22:56.488Z,61.72
2016-11-29T12:23:22.014Z,61.65
2016-11-29T12:23:47.546Z,61.55
2016-11-29T12:24:13.089Z,61.52
2016-11-29T12:24:38.710Z,61.43
2016-11-29T12:25:04.256Z,61.72
2016-11-29T12:25:29.811Z,61.46
2016-11-29T12:25:55.384Z,61.65
2016-11-29T12:26:20.891Z,61.65
2016-11-29T12:26:46.441Z,61.94
2016-11-29T12:27:11.982Z,61.75
2016-11-29T12:27:37.494Z,61.65
2016-11-29T12:28:03.073Z,61.65
2016-11-29T12:28:28.618Z,61.84
2016-11-29T12:28:54.140Z,61.46
2016-11-29T12:29:19.694Z,61.65
2016-11-29T12:29:45.263Z,61.65
2016-11-29T12:30:10.873Z,61.65
2016-11-29T12:30:36.460Z,61.65
2016-11-29T12:31:02.031Z,61.65
2016-11-29T12:31:27.582Z,61.55
2016-11-29T12:31:53.189Z,61.36
2016-11-29T12:32:18.687Z,61.36
2016-11-29T12:32:44.241Z,61.08
2016-11-29T12:33:09.774Z,61.08
2016-11-29T12:33:35.415Z,61.08
2016-11-29T12:34:01.014Z,61.27
2016-11-29T12:34:26.590Z,61.27
2016-11-29T12:34:52.125Z,60.98
2016-11-29T12:35:17.851Z,61.17
2016-11-29T12:35:43.379Z,61.08
2016-11-29T12:36:08.901Z,60.88
2016-11-29T12:36:34.458Z,61.08
2016-11-29T12:37:00.001Z,61.17
2016-11-29T12:37:25.567Z,60.6
2016-11-29T12:37:51.097Z,60.6
2016-11-29T12:38:16.655Z,60.6
2016-11-29T12:38:42.212Z,60.5
2016-11-29T12:39:07.743Z,60.4
2016-11-29T12:39:33.262Z,60.4
2016-11-29T12:39:58.798Z,60.78
2016-11-29T12:40:24.345Z,60.72
2016-11-29T12:40:49.873Z,60.4
2016-11-29T12:41:15.423Z,60.69
2016-11-29T12:41:40.980Z,60.78
2016-11-29T12:42:06.511Z,60.72
2016-11-29T12:42:32.030Z,60.82
2016-11-29T12:42:57.652Z,60.72
2016-11-29T12:43:23.211Z,60.43
2016-11-29T12:43:48.774Z,60.14
2016-11-29T12:44:14.307Z,60.43
2016-11-29T12:44:39.835Z,60.34
2016-11-29T12:45:05.351Z,60.14
2016-11-29T12:45:30.950Z,59.76
2016-11-29T12:45:56.533Z,60.05
2016-11-29T12:46:22.060Z,59.86
2016-11-29T12:46:47.587Z,59.28
2016-11-29T12:47:13.104Z,59.5
2016-11-29T12:47:38.748Z,59.38
2016-11-29T12:48:04.304Z,59.41
2016-11-29T12:48:29.839Z,59.5
2016-11-29T12:48:55.352Z,59.02
2016-11-29T12:49:20.900Z,58.92
2016-11-29T12:49:46.435Z,59.12
2016-11-29T12:50:11.961Z,58.73
2016-11-29T12:50:37.508Z,58.64
2016-11-29T12:51:03.002Z,58.06
2016-11-29T12:51:28.535Z,58.15
2016-11-29T12:51:54.104Z,58.54
2016-11-29T12:52:19.648Z,58.54
2016-11-29T12:52:45.240Z,58.45
2016-11-29T12:53:10.787Z,58.54
2016-11-29T12:53:36.331Z,58.25
2016-11-29T12:54:01.865Z,58.35
2016-11-29T12:54:27.444Z,58.64
2016-11-29T12:54:52.984Z,58.64
2016-11-29T12:55:18.515Z,58.35
2016-11-29T12:55:44.070Z,58.64
2016-11-29T12:56:09.609Z,58.64
2016-11-29T12:56:35.195Z,58.35
2016-11-29T12:57:00.735Z,58.15
2016-11-29T12:57:26.278Z,57.87
2016-11-29T12:57:51.792Z,58.15
2016-11-29T12:58:17.320Z,57.97
2016-11-29T12:58:42.920Z,57.97
2016-11-29T12:59:08.450Z,57.87
2016-11-29T12:59:33.986Z,57.77
2016-11-29T12:59:59.502Z,57.87
2016-11-29T13:00:25.022Z,58.15
2016-11-29T13:00:50.579Z,58.15
2016-11-29T13:01:16.105Z,58.15
2016-11-29T13:01:41.668Z,58.06
2016-11-29T13:02:07.192Z,58.73
2016-11-29T13:02:32.715Z,58.64
2016-11-29T13:02:58.251Z,58.54
2016-11-29T13:03:23.771Z,58.35
2016-11-29T13:03:49.402Z,58.54
2016-11-29T13:04:15.051Z,58.92
2016-11-29T13:04:40.622Z,58.45
2016-11-29T13:05:06.142Z,58.25
2016-11-29T13:05:31.812Z,58.35
2016-11-29T13:05:57.387Z,58.54
2016-11-29T13:06:22.923Z,58.35
2016-11-29T13:06:48.468Z,58.45
2016-11-29T13:07:14.009Z,58.54
2016-11-29T13:07:39.574Z,58.64
2016-11-29T13:08:05.211Z,58.64
2016-11-29T13:08:30.729Z,58.64
2016-11-29T13:08:56.260Z,58.54
2016-11-29T13:09:21.798Z,58.35
2016-11-29T13:09:47.382Z,58.35
2016-11-29T13:10:13.024Z,58.92
2016-11-29T13:10:38.585Z,59.02
2016-11-29T13:11:04.227Z,59.12
2016-11-29T13:11:29.833Z,58.92
2016-11-29T13:11:55.380Z,59.02
2016-11-29T13:12:20.910Z,59.09
2016-11-29T13:12:46.440Z,59.19
2016-11-29T13:13:11.958Z,58.99
2016-11-29T13:13:37.589Z,58.99
2016-11-29T13:14:03.206Z,59.57
2016-11-29T13:14:28.764Z,59.47
2016-11-29T13:14:54.316Z,59.57
2016-11-29T13:15:19.965Z,59.47
2016-11-29T13:15:45.487Z,59.38
2016-11-29T13:16:11.008Z,59.47
2016-11-29T13:16:36.577Z,59.28
2016-11-29T13:17:02.147Z,59.28
2016-11-29T13:17:27.750Z,59.09
2016-11-29T13:17:53.296Z,59.09
2016-11-29T13:18:18.815Z,59.19
2016-11-29T13:18:44.346Z,59.38
2016-11-29T13:19:09.875Z,59.38
2016-11-29T13:19:35.529Z,59.47
2016-11-29T13:20:01.100Z,59.47
2016-11-29T13:20:26.609Z,59.38
2016-11-29T13:20:52.141Z,59.66
2016-11-29T13:21:17.678Z,59.66
2016-11-29T13:21:43.226Z,59.38
2016-11-29T13:22:08.861Z,59.76
2016-11-29T13:22:34.383Z,59.57
2016-11-29T13:22:59.919Z,59.86
2016-11-29T13:23:25.435Z,59.76
2016-11-29T13:23:50.978Z,60.05
2016-11-29T13:24:16.551Z,59.86
2016-11-29T13:24:42.202Z,60.14
2016-11-29T13:25:07.752Z,60.14
2016-11-29T13:25:33.293Z,59.76
2016-11-29T13:25:58.814Z,59.76
2016-11-29T13:26:24.376Z,59.95
2016-11-29T13:26:49.927Z,59.73
2016-11-29T13:27:15.462Z,60.05
2016-11-29T13:27:41.014Z,59.92
2016-11-29T13:28:06.605Z,59.95
2016-11-29T13:28:32.114Z,59.76
2016-11-29T13:28:57.734Z,60.02
2016-11-29T13:29:23.285Z,59.86
2016-11-29T13:29:48.862Z,59.44
2016-11-29T13:30:14.457Z,59.64
2016-11-29T13:30:39.974Z,59.73
2016-11-29T13:31:05.504Z,60.02
2016-11-29T13:31:31.054Z,60.4
2016-11-29T13:31:56.588Z,60.31
2016-11-29T13:32:22.149Z,60.21
2016-11-29T13:32:47.676Z,60.02
2016-11-29T13:33:13.212Z,60.6
2016-11-29T13:33:38.745Z,60.5
2016-11-29T13:34:05.224Z,59.83
2016-11-29T13:34:30.749Z,60.11
2016-11-29T13:34:56.267Z,60.21
2016-11-29T13:35:21.772Z,60.5
2016-11-29T13:35:47.315Z,60.69
2016-11-29T13:36:13.037Z,60.78
2016-11-29T13:36:38.587Z,60.5
2016-11-29T13:37:04.115Z,60.69
2016-11-29T13:37:29.723Z,60.69
2016-11-29T13:37:55.342Z,60.78
2016-11-29T13:38:20.878Z,60.4
2016-11-29T13:38:46.406Z,60.4
2016-11-29T13:39:11.948Z,60.69
2016-11-29T13:39:37.489Z,61.17
2016-11-29T13:40:03.035Z,61.27
2016-11-29T13:40:28.589Z,61.08
2016-11-29T13:40:54.164Z,61.08
2016-11-29T13:41:19.697Z,60.88
2016-11-29T13:41:45.242Z,60.88
2016-11-29T13:42:10.838Z,60.88
2016-11-29T13:42:36.387Z,60.98
2016-11-29T13:43:01.916Z,61.17
2016-11-29T13:43:27.454Z,61.08
2016-11-29T13:43:53.001Z,60.88
2016-11-29T13:44:18.555Z,61.43
2016-11-29T13:44:44.111Z,60.88
2016-11-29T13:45:09.688Z,60.88
2016-11-29T13:45:35.200Z,61.33
2016-11-29T13:46:00.754Z,61.62
2016-11-29T13:46:26.292Z,61.91
2016-11-29T13:46:51.833Z,61.84
2016-11-29T13:47:17.340Z,61.52
2016-11-29T13:47:42.907Z,61.52
2016-11-29T13:48:08.435Z,61.33
2016-11-29T13:48:33.996Z,61.33
2016-11-29T13:48:59.517Z,61.72
2016-11-29T13:49:25.019Z,61.72
2016-11-29T13:49:50.547Z,62.01
2016-11-29T13:50:16.078Z,62.19
2016-11-29T13:50:41.630Z,62.1
2016-11-29T13:51:07.164Z,62.1
2016-11-29T13:51:32.705Z,61.91
2016-11-29T13:51:58.257Z,61.91
2016-11-29T13:52:23.802Z,62.29
2016-11-29T13:52:49.342Z,62.29
2016-11-29T13:53:14.877Z,62.29
2016-11-29T13:53:40.510Z,62.39
2016-11-29T13:54:06.077Z,62.39
2016-11-29T13:54:31.611Z,62.29
2016-11-29T13:54:57.159Z,62.48
2016-11-29T13:55:22.718Z,62.29
2016-11-29T13:55:48.315Z,62.39
2016-11-29T13:56:13.854Z,62.29
2016-11-29T13:56:39.382Z,62.19
2016-11-29T13:57:04.932Z,62.58
2016-11-29T13:57:30.470Z,62.19
2016-11-29T13:57:56.002Z,62.1
2016-11-29T13:58:21.552Z,62.19
2016-11-29T13:58:47.095Z,62.39
2016-11-29T13:59:12.606Z,62.19
2016-11-29T13:59:38.162Z,62.39
2016-11-29T14:00:03.693Z,62.48
2016-11-29T14:00:29.238Z,62.39
2016-11-29T14:00:54.769Z,62.48
2016-11-29T14:01:20.313Z,62.29
2016-11-29T14:01:45.863Z,62.19
2016-11-29T14:02:11.411Z,62.01
2016-11-29T14:02:36.940Z,62.39
2016-11-29T14:03:02.449Z,62.39
2016-11-29T14:03:27.995Z,62.1
2016-11-29T14:03:53.515Z,62.1
2016-11-29T14:04:19.124Z,62.29
2016-11-29T14:04:44.686Z,62.39
2016-11-29T14:05:10.222Z,62.29
2016-11-29T14:05:35.752Z,62.29
2016-11-29T14:06:01.283Z,62.58
2016-11-29T14:06:26.844Z,62.48
2016-11-29T14:06:52.388Z,62.48
2016-11-29T14:07:18.000Z,62.39
2016-11-29T14:07:43.510Z,62.58
2016-11-29T14:08:09.063Z,62.58
2016-11-29T14:08:34.643Z,62.48
2016-11-29T14:09:00.169Z,62.48
2016-11-29T14:09:25.694Z,62.48
2016-11-29T14:09:51.257Z,62.96
2016-11-29T14:10:16.808Z,62.58
2016-11-29T14:10:42.337Z,62.96
2016-11-29T14:11:07.870Z,62.48
2016-11-29T14:11:33.433Z,62.48
2016-11-29T14:11:58.947Z,62.96
2016-11-29T14:12:24.532Z,62.39
2016-11-29T14:12:50.124Z,62.96
2016-11-29T14:13:15.650Z,62.58
2016-11-29T14:13:41.182Z,62.39
2016-11-29T14:14:06.745Z,62.39
2016-11-29T14:14:32.275Z,62.39
2016-11-29T14:14:57.867Z,62.29
2016-11-29T14:15:23.457Z,62.48
2016-11-29T14:15:49.019Z,62.19
2016-11-29T14:16:14.683Z,62.58
2016-11-29T14:16:40.245Z,62.48
2016-11-29T14:17:05.811Z,62.48
2016-11-29T14:17:31.341Z,62.1
2016-11-29T14:17:56.866Z,62.01
2016-11-29T14:18:22.403Z,62.29
2016-11-29T14:18:47.947Z,62.29
2016-11-29T14:19:13.496Z,62.1
2016-11-29T14:19:39.050Z,62.29
2016-11-29T14:20:04.590Z,62.29
2016-11-29T14:21:07.801Z,62.58
2016-11-29T14:21:33.350Z,62.96
2016-11-29T14:21:58.929Z,62.87
2016-11-29T14:22:24.477Z,62.87
2016-11-29T14:22:50.010Z,62.87
2016-11-29T14:23:15.574Z,62.77
2016-11-29T14:23:41.106Z,62.77
2016-11-29T14:24:06.650Z,62.87
2016-11-29T14:24:32.195Z,62.58
2016-11-29T14:24:57.738Z,62.58
2016-11-29T14:25:23.266Z,62.68
2016-11-29T14:25:48.811Z,63.16
2016-11-29T14:26:14.396Z,62.96
2016-11-29T14:26:40.051Z,63.06
2016-11-29T14:27:05.588Z,63.06
2016-11-29T14:27:31.125Z,62.77
2016-11-29T14:27:56.672Z,63.06
2016-11-29T14:28:22.215Z,63.16
2016-11-29T14:28:47.733Z,62.96
2016-11-29T14:29:13.259Z,62.74
2016-11-29T14:29:38.766Z,63.06
2016-11-29T14:30:04.342Z,63.06
2016-11-29T14:30:29.947Z,63.06
2016-11-29T14:30:55.464Z,62.96
2016-11-29T14:31:20.999Z,62.77
2016-11-29T14:31:46.629Z,62.87
2016-11-29T14:32:12.158Z,63.06
2016-11-29T14:32:37.673Z,62.68
2016-11-29T14:33:03.202Z,63.06
2016-11-29T14:33:28.754Z,62.96
2016-11-29T14:33:54.347Z,62.58
2016-11-29T14:34:19.894Z,62.96
2016-11-29T14:34:45.417Z,63.16
2016-11-29T14:35:10.948Z,63.16
2016-11-29T14:35:36.475Z,62.96
2016-11-29T14:36:02.002Z,63.16
2016-11-29T14:36:27.538Z,62.96
2016-11-29T14:36:53.072Z,63.06
2016-11-29T14:37:18.699Z,63.06
2016-11-29T14:37:44.233Z,63.06
2016-11-29T14:38:09.771Z,62.96
2016-11-29T14:38:35.337Z,63.06
2016-11-29T14:39:00.853Z,62.68
2016-11-29T14:39:26.400Z,62.77
2016-11-29T14:39:51.939Z,62.87
2016-11-29T14:40:17.530Z,63.03
2016-11-29T14:40:43.106Z,62.84
2016-11-29T14:41:08.621Z,63.06
2016-11-29T14:41:34.213Z,63.16
2016-11-29T14:41:59.744Z,63.12
2016-11-29T14:42:25.283Z,63.32
2016-11-29T14:42:50.814Z,63.16
2016-11-29T14:43:16.329Z,63.22
2016-11-29T14:43:41.838Z,63.22
2016-11-29T14:44:07.347Z,63.12
2016-11-29T14:44:32.870Z,63.12
2016-11-29T14:44:58.424Z,63.12
2016-11-29T14:45:24.052Z,63.12
2016-11-29T14:45:49.592Z,63.42
2016-11-29T14:46:15.133Z,63.51
2016-11-29T14:46:40.734Z,63.6
2016-11-29T14:47:06.263Z,63.51
2016-11-29T14:47:31.923Z,63.51
2016-11-29T14:47:57.497Z,63.7
2016-11-29T14:48:22.994Z,64.09
2016-11-29T14:48:48.530Z,63.7
2016-11-29T14:49:14.063Z,63.7
2016-11-29T14:49:39.631Z,63.6
2016-11-29T14:50:05.157Z,63.51
2016-11-29T14:50:30.706Z,63.51
2016-11-29T14:50:56.216Z,63.42
2016-11-29T14:51:21.773Z,63.32
2016-11-29T14:51:47.435Z,63.6
2016-11-29T14:52:12.961Z,63.99
2016-11-29T14:52:38.512Z,63.42
2016-11-29T14:53:04.033Z,63.6
2016-11-29T14:53:29.572Z,63.22
2016-11-29T14:53:55.135Z,63.22
2016-11-29T14:54:20.776Z,63.51
2016-11-29T14:54:46.334Z,63.42
2016-11-29T14:55:11.857Z,63.79
2016-11-29T14:55:37.411Z,63.6
2016-11-29T14:56:02.972Z,63.42
2016-11-29T14:56:28.552Z,63.12
2016-11-29T14:56:54.085Z,63.32
2016-11-29T14:57:19.627Z,63.6
2016-11-29T14:57:45.148Z,63.32
2016-11-29T14:58:10.687Z,63.42
2016-11-29T14:58:36.236Z,63.79
2016-11-29T14:59:01.863Z,63.51
2016-11-29T14:59:27.459Z,63.7
2016-11-29T14:59:52.975Z,63.51
2016-11-29T15:00:18.491Z,63.79
2016-11-29T15:00:44.016Z,63.79
2016-11-29T15:01:09.539Z,63.42
2016-11-29T15:01:35.096Z,63.7
2016-11-29T15:02:00.627Z,63.42
2016-11-29T15:02:26.181Z,63.42
2016-11-29T15:02:51.698Z,63.42
2016-11-29T15:03:17.221Z,63.22
2016-11-29T15:03:42.752Z,63.79
2016-11-29T15:04:08.359Z,63.79
2016-11-29T15:04:33.933Z,64.28
2016-11-29T15:04:59.464Z,64.28
2016-11-29T15:05:25.098Z,63.22
2016-11-29T15:05:50.797Z,63.89
2016-11-29T15:06:16.380Z,64.09
2016-11-29T15:06:41.895Z,63.7
2016-11-29T15:07:07.429Z,63.99
2016-11-29T15:07:32.986Z,63.79
2016-11-29T15:07:58.548Z,63.79
2016-11-29T15:08:24.194Z,63.99
2016-11-29T15:08:49.733Z,64.09
2016-11-29T15:09:15.266Z,64.76
2016-11-29T15:09:40.869Z,64.28
2016-11-29T15:10:06.437Z,64.18
2016-11-29T15:10:31.971Z,64.85
2016-11-29T15:10:57.519Z,64.82
2016-11-29T15:11:23.039Z,64.82
2016-11-29T15:11:48.574Z,64.82
2016-11-29T15:12:14.117Z,65.2
2016-11-29T15:12:39.661Z,64.82
2016-11-29T15:13:05.262Z,64.92
2016-11-29T15:13:31.603Z,65.39
2016-11-29T15:13:57.130Z,65.11
2016-11-29T15:14:22.650Z,64.92
2016-11-29T15:14:48.197Z,65.2
2016-11-29T15:15:13.747Z,65.3
2016-11-29T15:15:39.344Z,65.49
2016-11-29T15:16:04.908Z,65.68
2016-11-29T15:16:30.432Z,65.68
2016-11-29T15:16:55.977Z,65.49
2016-11-29T15:17:21.495Z,65.78
2016-11-29T15:17:47.026Z,65.78
2016-11-29T15:18:12.554Z,65.78
2016-11-29T15:18:38.076Z,66.16
2016-11-29T15:19:03.610Z,65.88
2016-11-29T15:19:29.188Z,65.88
2016-11-29T15:19:54.724Z,65.68
2016-11-29T15:20:20.252Z,66.06
2016-11-29T15:20:45.783Z,65.97
2016-11-29T15:21:11.338Z,66.06
2016-11-29T15:21:36.858Z,66.26
2016-11-29T15:22:02.391Z,66.22
2016-11-29T15:22:27.957Z,65.94
2016-11-29T15:22:53.507Z,66.32
2016-11-29T15:23:19.170Z,66.22
2016-11-29T15:23:44.703Z,66.51
2016-11-29T15:24:10.266Z,66.89
2016-11-29T15:24:35.816Z,66.32
2016-11-29T15:25:01.372Z,67.09
2016-11-29T15:25:26.897Z,66.03
2016-11-29T15:25:52.437Z,66.32
2016-11-29T15:26:17.978Z,66.61
2016-11-29T15:26:43.500Z,66.71
2016-11-29T15:27:09.041Z,66.89
2016-11-29T15:27:34.623Z,67.09
2016-11-29T15:28:00.166Z,66.71
2016-11-29T15:28:25.679Z,66.8
2016-11-29T15:28:51.347Z,66.71
2016-11-29T15:29:16.863Z,66.89
2016-11-29T15:29:42.507Z,66.71